sensor_id;sensor_type;location;lat;lon;timestamp;P1;durP1;ratioP1;P2;durP2;ratioP2
21806;SDS011;11065;50.786;7.840;2024-03-06T00:01:44;17.93;;;12.57;;
21806;SDS011;11065;50.786;7.840;2024-03-06T00:04:13;18.07;;;13.50;;
21806;SDS011;11065;50.786;7.840;2024-03-06T00:06:43;17.27;;;13.07;;
21806;SDS011;11065;50.786;7.840;2024-03-06T00:09:12;17.20;;;12.30;;
21806;SDS011;11065;50.786;7.840;2024-03-06T00:11:40;16.33;;;12.47;;
21806;SDS011;11065;50.786;7.840;2024-03-06T00:14:08;17.30;;;12.97;;
21806;SDS011;11065;50.786;7.840;2024-03-06T00:16:39;16.13;;;12.13;;
21806;SDS011;11065;50.786;7.840;2024-03-06T00:19:07;16.33;;;11.73;;
21806;SDS011;11065;50.786;7.840;2024-03-06T00:21:35;15.90;;;12.23;;
21806;SDS011;11065;50.786;7.840;2024-03-06T00:24:03;18.50;;;12.87;;
21806;SDS011;11065;50.786;7.840;2024-03-06T00:26:33;19.10;;;13.07;;
21806;SDS011;11065;50.786;7.840;2024-03-06T00:29:01;17.83;;;12.73;;
21806;SDS011;11065;50.786;7.840;2024-03-06T00:31:29;16.70;;;12.53;;
21806;SDS011;11065;50.786;7.840;2024-03-06T00:33:57;18.33;;;12.03;;
21806;SDS011;11065;50.786;7.840;2024-03-06T00:36:25;15.30;;;11.23;;
21806;SDS011;11065;50.786;7.840;2024-03-06T00:38:53;16.20;;;11.97;;
21806;SDS011;11065;50.786;7.840;2024-03-06T00:41:21;17.57;;;13.07;;
21806;SDS011;11065;50.786;7.840;2024-03-06T00:43:50;16.30;;;11.87;;
21806;SDS011;11065;50.786;7.840;2024-03-06T00:46:19;17.93;;;12.47;;
21806;SDS011;11065;50.786;7.840;2024-03-06T00:48:46;15.67;;;11.23;;
21806;SDS011;11065;50.786;7.840;2024-03-06T00:51:14;14.53;;;11.03;;
21806;SDS011;11065;50.786;7.840;2024-03-06T00:53:43;17.83;;;12.37;;
21806;SDS011;11065;50.786;7.840;2024-03-06T00:56:12;14.83;;;11.30;;
21806;SDS011;11065;50.786;7.840;2024-03-06T00:58:40;16.57;;;12.27;;
21806;SDS011;11065;50.786;7.840;2024-03-06T01:01:09;15.70;;;12.30;;
21806;SDS011;11065;50.786;7.840;2024-03-06T01:03:37;16.57;;;11.77;;
21806;SDS011;11065;50.786;7.840;2024-03-06T01:06:06;17.03;;;11.13;;
21806;SDS011;11065;50.786;7.840;2024-03-06T01:08:33;15.20;;;11.10;;
21806;SDS011;11065;50.786;7.840;2024-03-06T01:11:02;15.40;;;10.60;;
21806;SDS011;11065;50.786;7.840;2024-03-06T01:13:31;15.87;;;11.33;;
21806;SDS011;11065;50.786;7.840;2024-03-06T01:15:58;15.00;;;10.53;;
21806;SDS011;11065;50.786;7.840;2024-03-06T01:18:28;16.13;;;11.53;;
21806;SDS011;11065;50.786;7.840;2024-03-06T01:20:56;17.07;;;11.37;;
21806;SDS011;11065;50.786;7.840;2024-03-06T01:23:24;16.87;;;11.67;;
21806;SDS011;11065;50.786;7.840;2024-03-06T01:25:52;15.47;;;11.30;;
21806;SDS011;11065;50.786;7.840;2024-03-06T01:28:20;16.03;;;11.33;;
21806;SDS011;11065;50.786;7.840;2024-03-06T01:30:48;16.10;;;11.03;;
21806;SDS011;11065;50.786;7.840;2024-03-06T01:33:16;15.27;;;11.00;;
21806;SDS011;11065;50.786;7.840;2024-03-06T01:35:45;13.17;;;10.30;;
21806;SDS011;11065;50.786;7.840;2024-03-06T01:38:13;15.40;;;10.97;;
21806;SDS011;11065;50.786;7.840;2024-03-06T01:40:43;14.77;;;10.80;;
21806;SDS011;11065;50.786;7.840;2024-03-06T01:43:18;15.20;;;10.50;;
21806;SDS011;11065;50.786;7.840;2024-03-06T01:45:48;15.77;;;11.23;;
21806;SDS011;11065;50.786;7.840;2024-03-06T01:48:17;16.80;;;11.20;;
21806;SDS011;11065;50.786;7.840;2024-03-06T01:50:48;17.23;;;11.37;;
21806;SDS011;11065;50.786;7.840;2024-03-06T01:53:16;14.97;;;10.77;;
21806;SDS011;11065;50.786;7.840;2024-03-06T01:55:46;15.27;;;10.17;;
21806;SDS011;11065;50.786;7.840;2024-03-06T01:58:16;15.70;;;10.43;;
21806;SDS011;11065;50.786;7.840;2024-03-06T02:00:44;14.03;;;10.03;;
21806;SDS011;11065;50.786;7.840;2024-03-06T02:03:12;14.60;;;10.27;;
21806;SDS011;11065;50.786;7.840;2024-03-06T02:05:40;14.50;;;10.13;;
21806;SDS011;11065;50.786;7.840;2024-03-06T02:08:10;16.13;;;10.77;;
21806;SDS011;11065;50.786;7.840;2024-03-06T02:10:39;13.80;;;10.57;;
21806;SDS011;11065;50.786;7.840;2024-03-06T02:13:07;16.53;;;11.87;;
21806;SDS011;11065;50.786;7.840;2024-03-06T02:15:36;16.90;;;12.50;;
21806;SDS011;11065;50.786;7.840;2024-03-06T02:18:04;17.80;;;13.40;;
21806;SDS011;11065;50.786;7.840;2024-03-06T02:20:34;17.57;;;12.50;;
21806;SDS011;11065;50.786;7.840;2024-03-06T02:23:02;16.03;;;12.40;;
21806;SDS011;11065;50.786;7.840;2024-03-06T02:25:30;18.27;;;11.57;;
21806;SDS011;11065;50.786;7.840;2024-03-06T02:27:59;14.83;;;11.40;;
21806;SDS011;11065;50.786;7.840;2024-03-06T02:30:27;16.47;;;11.43;;
21806;SDS011;11065;50.786;7.840;2024-03-06T02:32:56;15.83;;;11.53;;
21806;SDS011;11065;50.786;7.840;2024-03-06T02:35:25;17.53;;;12.20;;
21806;SDS011;11065;50.786;7.840;2024-03-06T02:37:54;15.93;;;11.53;;
21806;SDS011;11065;50.786;7.840;2024-03-06T02:40:23;15.97;;;11.50;;
21806;SDS011;11065;50.786;7.840;2024-03-06T02:42:51;18.37;;;12.17;;
21806;SDS011;11065;50.786;7.840;2024-03-06T02:45:19;18.37;;;12.50;;
21806;SDS011;11065;50.786;7.840;2024-03-06T02:47:47;16.43;;;11.93;;
21806;SDS011;11065;50.786;7.840;2024-03-06T02:50:15;17.33;;;12.00;;
21806;SDS011;11065;50.786;7.840;2024-03-06T02:52:43;16.50;;;11.87;;
21806;SDS011;11065;50.786;7.840;2024-03-06T02:55:12;19.33;;;12.97;;
21806;SDS011;11065;50.786;7.840;2024-03-06T02:57:41;18.47;;;12.40;;
21806;SDS011;11065;50.786;7.840;2024-03-06T03:00:09;20.70;;;13.70;;
21806;SDS011;11065;50.786;7.840;2024-03-06T03:02:39;21.57;;;14.43;;
21806;SDS011;11065;50.786;7.840;2024-03-06T03:05:07;19.47;;;13.17;;
21806;SDS011;11065;50.786;7.840;2024-03-06T03:07:36;18.20;;;13.20;;
21806;SDS011;11065;50.786;7.840;2024-03-06T03:10:04;20.67;;;13.77;;
21806;SDS011;11065;50.786;7.840;2024-03-06T03:12:34;20.53;;;13.97;;
21806;SDS011;11065;50.786;7.840;2024-03-06T03:15:02;18.83;;;13.63;;
21806;SDS011;11065;50.786;7.840;2024-03-06T03:17:30;17.63;;;12.93;;
21806;SDS011;11065;50.786;7.840;2024-03-06T03:19:59;20.80;;;14.23;;
21806;SDS011;11065;50.786;7.840;2024-03-06T03:22:29;18.07;;;13.13;;
21806;SDS011;11065;50.786;7.840;2024-03-06T03:24:57;17.40;;;12.20;;
21806;SDS011;11065;50.786;7.840;2024-03-06T03:27:25;17.37;;;11.80;;
21806;SDS011;11065;50.786;7.840;2024-03-06T03:29:54;17.03;;;12.67;;
21806;SDS011;11065;50.786;7.840;2024-03-06T03:32:22;17.70;;;12.63;;
21806;SDS011;11065;50.786;7.840;2024-03-06T03:34:50;19.10;;;13.47;;
21806;SDS011;11065;50.786;7.840;2024-03-06T03:37:18;16.67;;;12.40;;
21806;SDS011;11065;50.786;7.840;2024-03-06T03:39:46;17.03;;;12.63;;
21806;SDS011;11065;50.786;7.840;2024-03-06T03:42:14;16.87;;;12.50;;
21806;SDS011;11065;50.786;7.840;2024-03-06T03:44:42;16.80;;;11.50;;
21806;SDS011;11065;50.786;7.840;2024-03-06T03:47:12;16.70;;;11.53;;
21806;SDS011;11065;50.786;7.840;2024-03-06T03:49:40;17.10;;;11.93;;
21806;SDS011;11065;50.786;7.840;2024-03-06T03:52:08;16.03;;;10.80;;
21806;SDS011;11065;50.786;7.840;2024-03-06T03:54:36;17.33;;;11.87;;
21806;SDS011;11065;50.786;7.840;2024-03-06T03:57:04;15.77;;;11.57;;
21806;SDS011;11065;50.786;7.840;2024-03-06T03:59:33;14.80;;;10.00;;
21806;SDS011;11065;50.786;7.840;2024-03-06T04:02:01;15.57;;;11.13;;
21806;SDS011;11065;50.786;7.840;2024-03-06T04:04:31;13.00;;;9.07;;
21806;SDS011;11065;50.786;7.840;2024-03-06T04:07:00;12.17;;;9.57;;
21806;SDS011;11065;50.786;7.840;2024-03-06T04:09:28;14.27;;;10.20;;
21806;SDS011;11065;50.786;7.840;2024-03-06T04:11:56;14.17;;;9.97;;
21806;SDS011;11065;50.786;7.840;2024-03-06T04:14:24;11.37;;;8.93;;
21806;SDS011;11065;50.786;7.840;2024-03-06T04:16:53;11.83;;;9.00;;
21806;SDS011;11065;50.786;7.840;2024-03-06T04:19:21;13.50;;;9.37;;
21806;SDS011;11065;50.786;7.840;2024-03-06T04:21:50;12.23;;;9.07;;
21806;SDS011;11065;50.786;7.840;2024-03-06T04:24:18;11.23;;;8.13;;
21806;SDS011;11065;50.786;7.840;2024-03-06T04:26:46;15.20;;;9.87;;
21806;SDS011;11065;50.786;7.840;2024-03-06T04:29:14;11.23;;;8.73;;
21806;SDS011;11065;50.786;7.840;2024-03-06T04:31:42;14.77;;;9.97;;
21806;SDS011;11065;50.786;7.840;2024-03-06T04:34:10;14.03;;;9.60;;
21806;SDS011;11065;50.786;7.840;2024-03-06T04:36:38;15.37;;;11.07;;
21806;SDS011;11065;50.786;7.840;2024-03-06T04:39:07;13.57;;;10.30;;
21806;SDS011;11065;50.786;7.840;2024-03-06T04:41:36;17.07;;;11.03;;
21806;SDS011;11065;50.786;7.840;2024-03-06T04:44:04;17.50;;;11.90;;
21806;SDS011;11065;50.786;7.840;2024-03-06T04:46:32;16.63;;;11.60;;
21806;SDS011;11065;50.786;7.840;2024-03-06T04:49:00;15.37;;;10.57;;
21806;SDS011;11065;50.786;7.840;2024-03-06T04:51:28;16.03;;;11.83;;
21806;SDS011;11065;50.786;7.840;2024-03-06T04:53:56;17.10;;;11.63;;
21806;SDS011;11065;50.786;7.840;2024-03-06T04:56:25;14.73;;;10.90;;
21806;SDS011;11065;50.786;7.840;2024-03-06T04:58:53;15.43;;;11.00;;
21806;SDS011;11065;50.786;7.840;2024-03-06T05:01:21;14.80;;;10.63;;
21806;SDS011;11065;50.786;7.840;2024-03-06T05:03:49;13.13;;;9.97;;
21806;SDS011;11065;50.786;7.840;2024-03-06T05:06:35;12.37;;;9.33;;
21806;SDS011;11065;50.786;7.840;2024-03-06T05:09:21;15.63;;;10.03;;
21806;SDS011;11065;50.786;7.840;2024-03-06T05:12:09;14.33;;;9.37;;
21806;SDS011;11065;50.786;7.840;2024-03-06T05:14:55;12.70;;;9.03;;
21806;SDS011;11065;50.786;7.840;2024-03-06T05:17:41;19.03;;;9.70;;
21806;SDS011;11065;50.786;7.840;2024-03-06T05:20:27;15.10;;;9.63;;
21806;SDS011;11065;50.786;7.840;2024-03-06T05:23:14;21.07;;;9.70;;
21806;SDS011;11065;50.786;7.840;2024-03-06T05:26:01;14.20;;;9.20;;
21806;SDS011;11065;50.786;7.840;2024-03-06T05:28:48;15.80;;;7.67;;
21806;SDS011;11065;50.786;7.840;2024-03-06T05:31:33;13.07;;;8.00;;
21806;SDS011;11065;50.786;7.840;2024-03-06T05:34:19;13.20;;;6.70;;
21806;SDS011;11065;50.786;7.840;2024-03-06T05:37:04;25.80;;;7.80;;
21806;SDS011;11065;50.786;7.840;2024-03-06T05:39:50;9.07;;;6.10;;
21806;SDS011;11065;50.786;7.840;2024-03-06T05:42:36;18.67;;;7.80;;
21806;SDS011;11065;50.786;7.840;2024-03-06T05:45:23;10.40;;;7.40;;
21806;SDS011;11065;50.786;7.840;2024-03-06T05:48:08;11.60;;;6.63;;
21806;SDS011;11065;50.786;7.840;2024-03-06T05:50:54;9.80;;;6.67;;
21806;SDS011;11065;50.786;7.840;2024-03-06T05:53:40;10.53;;;6.93;;
21806;SDS011;11065;50.786;7.840;2024-03-06T05:56:26;9.10;;;6.83;;
21806;SDS011;11065;50.786;7.840;2024-03-06T05:59:12;9.57;;;6.20;;
21806;SDS011;11065;50.786;7.840;2024-03-06T06:01:41;9.87;;;6.57;;
21806;SDS011;11065;50.786;7.840;2024-03-06T06:04:10;9.57;;;6.70;;
21806;SDS011;11065;50.786;7.840;2024-03-06T06:06:39;11.13;;;7.10;;
21806;SDS011;11065;50.786;7.840;2024-03-06T06:09:08;8.70;;;6.63;;
21806;SDS011;11065;50.786;7.840;2024-03-06T06:11:42;13.47;;;7.83;;
21806;SDS011;11065;50.786;7.840;2024-03-06T06:14:10;12.60;;;7.67;;
21806;SDS011;11065;50.786;7.840;2024-03-06T06:16:38;10.83;;;6.83;;
21806;SDS011;11065;50.786;7.840;2024-03-06T06:19:08;11.13;;;7.60;;
21806;SDS011;11065;50.786;7.840;2024-03-06T06:21:36;10.97;;;7.80;;
21806;SDS011;11065;50.786;7.840;2024-03-06T06:24:05;13.30;;;8.23;;
21806;SDS011;11065;50.786;7.840;2024-03-06T06:26:33;11.40;;;8.20;;
21806;SDS011;11065;50.786;7.840;2024-03-06T06:29:01;11.07;;;8.07;;
21806;SDS011;11065;50.786;7.840;2024-03-06T06:31:29;13.03;;;8.50;;
21806;SDS011;11065;50.786;7.840;2024-03-06T06:33:57;10.77;;;8.10;;
21806;SDS011;11065;50.786;7.840;2024-03-06T06:36:27;11.40;;;8.37;;
21806;SDS011;11065;50.786;7.840;2024-03-06T06:38:55;13.47;;;9.20;;
21806;SDS011;11065;50.786;7.840;2024-03-06T06:41:25;13.77;;;8.33;;
21806;SDS011;11065;50.786;7.840;2024-03-06T06:43:53;11.37;;;8.17;;
21806;SDS011;11065;50.786;7.840;2024-03-06T06:46:21;12.43;;;9.07;;
21806;SDS011;11065;50.786;7.840;2024-03-06T06:48:49;12.97;;;9.07;;
21806;SDS011;11065;50.786;7.840;2024-03-06T06:51:17;12.70;;;8.50;;
21806;SDS011;11065;50.786;7.840;2024-03-06T06:53:46;13.63;;;9.60;;
21806;SDS011;11065;50.786;7.840;2024-03-06T06:56:14;13.80;;;9.90;;
21806;SDS011;11065;50.786;7.840;2024-03-06T06:58:42;16.10;;;10.07;;
21806;SDS011;11065;50.786;7.840;2024-03-06T07:01:11;14.07;;;9.53;;
21806;SDS011;11065;50.786;7.840;2024-03-06T07:03:39;16.37;;;10.20;;
21806;SDS011;11065;50.786;7.840;2024-03-06T07:06:07;16.67;;;10.20;;
21806;SDS011;11065;50.786;7.840;2024-03-06T07:08:35;16.17;;;9.97;;
21806;SDS011;11065;50.786;7.840;2024-03-06T07:11:05;14.07;;;10.57;;
21806;SDS011;11065;50.786;7.840;2024-03-06T07:13:33;15.17;;;10.03;;
21806;SDS011;11065;50.786;7.840;2024-03-06T07:16:02;14.77;;;10.43;;
21806;SDS011;11065;50.786;7.840;2024-03-06T07:18:30;16.70;;;11.00;;
21806;SDS011;11065;50.786;7.840;2024-03-06T07:20:58;16.93;;;10.97;;
21806;SDS011;11065;50.786;7.840;2024-03-06T07:23:26;17.57;;;11.33;;
21806;SDS011;11065;50.786;7.840;2024-03-06T07:25:54;18.93;;;12.13;;
21806;SDS011;11065;50.786;7.840;2024-03-06T07:28:25;16.40;;;10.73;;
21806;SDS011;11065;50.786;7.840;2024-03-06T07:30:53;17.57;;;12.00;;
21806;SDS011;11065;50.786;7.840;2024-03-06T07:33:21;17.43;;;11.90;;
21806;SDS011;11065;50.786;7.840;2024-03-06T07:35:49;16.00;;;11.20;;
21806;SDS011;11065;50.786;7.840;2024-03-06T07:38:16;17.87;;;11.23;;
21806;SDS011;11065;50.786;7.840;2024-03-06T07:40:44;17.03;;;10.80;;
21806;SDS011;11065;50.786;7.840;2024-03-06T07:43:13;18.13;;;12.97;;
21806;SDS011;11065;50.786;7.840;2024-03-06T07:45:42;20.40;;;12.90;;
21806;SDS011;11065;50.786;7.840;2024-03-06T07:48:10;20.17;;;11.67;;
21806;SDS011;11065;50.786;7.840;2024-03-06T07:50:38;19.53;;;12.73;;
21806;SDS011;11065;50.786;7.840;2024-03-06T07:53:06;16.63;;;11.53;;
21806;SDS011;11065;50.786;7.840;2024-03-06T07:55:34;16.03;;;11.13;;
21806;SDS011;11065;50.786;7.840;2024-03-06T07:58:02;15.97;;;10.13;;
21806;SDS011;11065;50.786;7.840;2024-03-06T08:00:30;17.00;;;11.83;;
21806;SDS011;11065;50.786;7.840;2024-03-06T08:03:00;17.30;;;11.93;;
21806;SDS011;11065;50.786;7.840;2024-03-06T08:05:28;17.97;;;11.33;;
21806;SDS011;11065;50.786;7.840;2024-03-06T08:07:56;17.40;;;11.23;;
21806;SDS011;11065;50.786;7.840;2024-03-06T08:10:24;16.77;;;10.63;;
21806;SDS011;11065;50.786;7.840;2024-03-06T08:12:52;18.17;;;12.40;;
21806;SDS011;11065;50.786;7.840;2024-03-06T08:15:20;17.60;;;11.53;;
21806;SDS011;11065;50.786;7.840;2024-03-06T08:17:48;19.33;;;12.07;;
21806;SDS011;11065;50.786;7.840;2024-03-06T08:20:20;17.70;;;11.93;;
21806;SDS011;11065;50.786;7.840;2024-03-06T08:22:48;19.10;;;11.97;;
21806;SDS011;11065;50.786;7.840;2024-03-06T08:25:16;18.07;;;12.37;;
21806;SDS011;11065;50.786;7.840;2024-03-06T08:27:44;17.47;;;12.10;;
21806;SDS011;11065;50.786;7.840;2024-03-06T08:30:12;18.50;;;11.53;;
21806;SDS011;11065;50.786;7.840;2024-03-06T08:32:40;19.63;;;12.53;;
21806;SDS011;11065;50.786;7.840;2024-03-06T08:35:10;18.43;;;11.63;;
21806;SDS011;11065;50.786;7.840;2024-03-06T08:37:45;18.60;;;12.10;;
21806;SDS011;11065;50.786;7.840;2024-03-06T08:40:13;22.13;;;13.80;;
21806;SDS011;11065;50.786;7.840;2024-03-06T08:42:42;20.40;;;13.27;;
21806;SDS011;11065;50.786;7.840;2024-03-06T08:45:10;18.47;;;12.57;;
21806;SDS011;11065;50.786;7.840;2024-03-06T08:47:38;17.37;;;12.17;;
21806;SDS011;11065;50.786;7.840;2024-03-06T08:50:07;21.40;;;11.93;;
21806;SDS011;11065;50.786;7.840;2024-03-06T08:52:36;18.70;;;12.03;;
21806;SDS011;11065;50.786;7.840;2024-03-06T08:55:06;17.60;;;11.23;;
21806;SDS011;11065;50.786;7.840;2024-03-06T08:57:34;19.10;;;11.37;;
21806;SDS011;11065;50.786;7.840;2024-03-06T09:00:04;16.87;;;12.03;;
21806;SDS011;11065;50.786;7.840;2024-03-06T09:02:36;19.10;;;12.70;;
21806;SDS011;11065;50.786;7.840;2024-03-06T09:05:07;17.83;;;11.47;;
21806;SDS011;11065;50.786;7.840;2024-03-06T09:07:36;15.13;;;10.80;;
21806;SDS011;11065;50.786;7.840;2024-03-06T09:10:08;17.47;;;11.30;;
21806;SDS011;11065;50.786;7.840;2024-03-06T09:12:37;16.07;;;11.50;;
21806;SDS011;11065;50.786;7.840;2024-03-06T09:15:05;15.83;;;11.03;;
21806;SDS011;11065;50.786;7.840;2024-03-06T09:17:35;15.60;;;10.37;;
21806;SDS011;11065;50.786;7.840;2024-03-06T09:20:03;15.57;;;10.27;;
21806;SDS011;11065;50.786;7.840;2024-03-06T09:22:37;13.03;;;9.73;;
21806;SDS011;11065;50.786;7.840;2024-03-06T09:25:05;14.70;;;10.40;;
21806;SDS011;11065;50.786;7.840;2024-03-06T09:27:35;14.67;;;9.90;;
21806;SDS011;11065;50.786;7.840;2024-03-06T09:30:04;13.37;;;9.60;;
21806;SDS011;11065;50.786;7.840;2024-03-06T09:32:33;14.53;;;10.07;;
21806;SDS011;11065;50.786;7.840;2024-03-06T09:35:01;14.10;;;9.77;;
21806;SDS011;11065;50.786;7.840;2024-03-06T09:37:29;15.23;;;9.90;;
21806;SDS011;11065;50.786;7.840;2024-03-06T09:39:57;15.17;;;9.83;;
21806;SDS011;11065;50.786;7.840;2024-03-06T09:42:25;13.90;;;9.40;;
21806;SDS011;11065;50.786;7.840;2024-03-06T09:44:54;14.07;;;9.83;;
21806;SDS011;11065;50.786;7.840;2024-03-06T09:47:22;14.13;;;10.00;;
21806;SDS011;11065;50.786;7.840;2024-03-06T09:49:53;14.93;;;9.97;;
21806;SDS011;11065;50.786;7.840;2024-03-06T09:52:21;14.07;;;9.60;;
21806;SDS011;11065;50.786;7.840;2024-03-06T09:54:52;15.37;;;10.13;;
21806;SDS011;11065;50.786;7.840;2024-03-06T09:57:22;12.87;;;9.57;;
21806;SDS011;11065;50.786;7.840;2024-03-06T09:59:51;12.13;;;9.47;;
21806;SDS011;11065;50.786;7.840;2024-03-06T10:02:30;13.83;;;9.80;;
21806;SDS011;11065;50.786;7.840;2024-03-06T10:05:03;14.10;;;10.07;;
21806;SDS011;11065;50.786;7.840;2024-03-06T10:07:31;14.57;;;10.67;;
21806;SDS011;11065;50.786;7.840;2024-03-06T10:09:59;14.93;;;10.13;;
21806;SDS011;11065;50.786;7.840;2024-03-06T10:12:27;14.47;;;11.00;;
21806;SDS011;11065;50.786;7.840;2024-03-06T10:14:56;14.83;;;11.10;;
21806;SDS011;11065;50.786;7.840;2024-03-06T10:17:26;16.47;;;11.60;;
21806;SDS011;11065;50.786;7.840;2024-03-06T10:19:54;15.90;;;11.87;;
21806;SDS011;11065;50.786;7.840;2024-03-06T10:22:24;14.40;;;10.95;;
21806;SDS011;11065;50.786;7.840;2024-03-06T10:24:54;13.75;;;10.40;;
21806;SDS011;11065;50.786;7.840;2024-03-06T10:27:23;14.13;;;10.95;;
21806;SDS011;11065;50.786;7.840;2024-03-06T10:30:00;14.02;;;11.13;;
21806;SDS011;11065;50.786;7.840;2024-03-06T10:32:33;15.60;;;11.45;;
21806;SDS011;11065;50.786;7.840;2024-03-06T10:35:01;15.07;;;11.45;;
21806;SDS011;11065;50.786;7.840;2024-03-06T10:37:29;12.93;;;10.63;;
21806;SDS011;11065;50.786;7.840;2024-03-06T10:39:57;12.65;;;10.85;;
21806;SDS011;11065;50.786;7.840;2024-03-06T10:42:32;12.95;;;9.50;;
21806;SDS011;11065;50.786;7.840;2024-03-06T10:45:02;13.80;;;10.75;;
21806;SDS011;11065;50.786;7.840;2024-03-06T10:47:34;14.05;;;11.27;;
21806;SDS011;11065;50.786;7.840;2024-03-06T10:50:05;11.52;;;9.82;;
21806;SDS011;11065;50.786;7.840;2024-03-06T10:52:36;12.27;;;10.38;;
21806;SDS011;11065;50.786;7.840;2024-03-06T10:55:07;11.65;;;8.90;;
21806;SDS011;11065;50.786;7.840;2024-03-06T10:57:36;10.25;;;8.70;;
21806;SDS011;11065;50.786;7.840;2024-03-06T11:00:06;9.23;;;7.40;;
21806;SDS011;11065;50.786;7.840;2024-03-06T11:02:37;9.75;;;8.10;;
21806;SDS011;11065;50.786;7.840;2024-03-06T11:05:07;9.40;;;7.90;;
21806;SDS011;11065;50.786;7.840;2024-03-06T11:07:36;10.30;;;7.47;;
21806;SDS011;11065;50.786;7.840;2024-03-06T11:10:04;10.43;;;8.32;;
21806;SDS011;11065;50.786;7.840;2024-03-06T11:12:35;11.00;;;8.18;;
21806;SDS011;11065;50.786;7.840;2024-03-06T11:15:10;9.77;;;7.45;;
21806;SDS011;11065;50.786;7.840;2024-03-06T11:17:43;8.93;;;7.88;;
21806;SDS011;11065;50.786;7.840;2024-03-06T11:20:15;7.47;;;6.03;;
21806;SDS011;11065;50.786;7.840;2024-03-06T11:23:04;7.05;;;6.20;;
21806;SDS011;11065;50.786;7.840;2024-03-06T11:25:59;6.75;;;5.80;;
21806;SDS011;11065;50.786;7.840;2024-03-06T11:28:30;5.63;;;4.80;;
21806;SDS011;11065;50.786;7.840;2024-03-06T11:31:00;6.05;;;4.72;;
21806;SDS011;11065;50.786;7.840;2024-03-06T11:33:37;5.72;;;5.05;;
21806;SDS011;11065;50.786;7.840;2024-03-06T11:36:16;5.95;;;4.68;;
21806;SDS011;11065;50.786;7.840;2024-03-06T11:38:47;5.03;;;3.90;;
21806;SDS011;11065;50.786;7.840;2024-03-06T11:41:19;6.00;;;4.20;;
21806;SDS011;11065;50.786;7.840;2024-03-06T11:43:51;6.35;;;4.72;;
21806;SDS011;11065;50.786;7.840;2024-03-06T11:46:20;5.78;;;4.28;;
21806;SDS011;11065;50.786;7.840;2024-03-06T11:48:54;5.68;;;4.50;;
21806;SDS011;11065;50.786;7.840;2024-03-06T11:51:24;7.10;;;4.90;;
21806;SDS011;11065;50.786;7.840;2024-03-06T11:53:52;6.00;;;5.00;;
21806;SDS011;11065;50.786;7.840;2024-03-06T11:56:21;6.28;;;4.75;;
21806;SDS011;11065;50.786;7.840;2024-03-06T11:58:49;6.53;;;4.88;;
21806;SDS011;11065;50.786;7.840;2024-03-06T12:01:17;6.10;;;5.00;;
21806;SDS011;11065;50.786;7.840;2024-03-06T12:03:46;5.90;;;4.72;;
21806;SDS011;11065;50.786;7.840;2024-03-06T12:06:16;7.00;;;4.40;;
21806;SDS011;11065;50.786;7.840;2024-03-06T12:08:45;4.85;;;3.40;;
21806;SDS011;11065;50.786;7.840;2024-03-06T12:11:13;6.00;;;3.72;;
21806;SDS011;11065;50.786;7.840;2024-03-06T12:13:41;4.82;;;3.40;;
21806;SDS011;11065;50.786;7.840;2024-03-06T12:16:10;3.45;;;2.60;;
21806;SDS011;11065;50.786;7.840;2024-03-06T12:18:38;4.32;;;3.28;;
21806;SDS011;11065;50.786;7.840;2024-03-06T12:21:06;3.40;;;2.35;;
21806;SDS011;11065;50.786;7.840;2024-03-06T12:23:36;4.20;;;2.42;;
21806;SDS011;11065;50.786;7.840;2024-03-06T12:26:04;5.13;;;3.00;;
21806;SDS011;11065;50.786;7.840;2024-03-06T12:28:35;4.10;;;2.88;;
21806;SDS011;11065;50.786;7.840;2024-03-06T12:31:03;5.13;;;3.28;;
21806;SDS011;11065;50.786;7.840;2024-03-06T12:33:32;6.05;;;3.22;;
21806;SDS011;11065;50.786;7.840;2024-03-06T12:36:01;5.17;;;3.27;;
21806;SDS011;11065;50.786;7.840;2024-03-06T12:38:31;4.33;;;3.00;;
21806;SDS011;11065;50.786;7.840;2024-03-06T12:41:01;5.83;;;3.07;;
21806;SDS011;11065;50.786;7.840;2024-03-06T12:43:29;5.40;;;3.03;;
21806;SDS011;11065;50.786;7.840;2024-03-06T12:45:57;3.77;;;2.60;;
21806;SDS011;11065;50.786;7.840;2024-03-06T12:48:28;5.97;;;3.20;;
21806;SDS011;11065;50.786;7.840;2024-03-06T12:50:57;5.37;;;3.37;;
21806;SDS011;11065;50.786;7.840;2024-03-06T12:53:31;4.53;;;3.03;;
21806;SDS011;11065;50.786;7.840;2024-03-06T12:56:03;4.17;;;3.00;;
21806;SDS011;11065;50.786;7.840;2024-03-06T12:58:32;3.73;;;2.67;;
21806;SDS011;11065;50.786;7.840;2024-03-06T13:01:01;4.47;;;2.70;;
21806;SDS011;11065;50.786;7.840;2024-03-06T13:03:29;3.73;;;2.60;;
21806;SDS011;11065;50.786;7.840;2024-03-06T13:05:58;3.77;;;2.40;;
21806;SDS011;11065;50.786;7.840;2024-03-06T13:08:27;3.57;;;2.33;;
21806;SDS011;11065;50.786;7.840;2024-03-06T13:10:55;3.03;;;2.17;;
21806;SDS011;11065;50.786;7.840;2024-03-06T13:13:25;4.43;;;2.45;;
21806;SDS011;11065;50.786;7.840;2024-03-06T13:15:55;3.15;;;2.22;;
21806;SDS011;11065;50.786;7.840;2024-03-06T13:18:27;3.50;;;2.55;;
21806;SDS011;11065;50.786;7.840;2024-03-06T13:20:55;4.00;;;2.90;;
21806;SDS011;11065;50.786;7.840;2024-03-06T13:23:24;4.05;;;2.50;;
21806;SDS011;11065;50.786;7.840;2024-03-06T13:25:52;4.47;;;2.67;;
21806;SDS011;11065;50.786;7.840;2024-03-06T13:28:20;5.03;;;2.78;;
21806;SDS011;11065;50.786;7.840;2024-03-06T13:30:49;4.22;;;2.50;;
21806;SDS011;11065;50.786;7.840;2024-03-06T13:33:17;4.60;;;2.58;;
21806;SDS011;11065;50.786;7.840;2024-03-06T13:35:45;4.40;;;3.25;;
21806;SDS011;11065;50.786;7.840;2024-03-06T13:38:14;4.60;;;3.42;;
21806;SDS011;11065;50.786;7.840;2024-03-06T13:40:42;5.30;;;3.65;;
21806;SDS011;11065;50.786;7.840;2024-03-06T13:43:10;4.97;;;3.72;;
21806;SDS011;11065;50.786;7.840;2024-03-06T13:45:38;5.03;;;3.30;;
21806;SDS011;11065;50.786;7.840;2024-03-06T13:48:17;6.60;;;3.78;;
21806;SDS011;11065;50.786;7.840;2024-03-06T13:50:46;4.82;;;3.00;;
21806;SDS011;11065;50.786;7.840;2024-03-06T13:53:14;4.20;;;2.93;;
21806;SDS011;11065;50.786;7.840;2024-03-06T13:55:43;5.10;;;3.50;;
21806;SDS011;11065;50.786;7.840;2024-03-06T13:58:11;4.97;;;3.17;;
21806;SDS011;11065;50.786;7.840;2024-03-06T14:00:39;5.37;;;3.43;;
21806;SDS011;11065;50.786;7.840;2024-03-06T14:03:09;4.90;;;3.10;;
21806;SDS011;11065;50.786;7.840;2024-03-06T14:05:38;5.23;;;2.77;;
21806;SDS011;11065;50.786;7.840;2024-03-06T14:08:06;3.20;;;2.43;;
21806;SDS011;11065;50.786;7.840;2024-03-06T14:10:38;4.25;;;2.90;;
21806;SDS011;11065;50.786;7.840;2024-03-06T14:13:07;6.60;;;3.97;;
21806;SDS011;11065;50.786;7.840;2024-03-06T14:15:35;4.80;;;2.93;;
21806;SDS011;11065;50.786;7.840;2024-03-06T14:18:04;4.90;;;2.63;;
21806;SDS011;11065;50.786;7.840;2024-03-06T14:20:34;4.87;;;2.57;;
21806;SDS011;11065;50.786;7.840;2024-03-06T14:23:05;3.90;;;2.60;;
21806;SDS011;11065;50.786;7.840;2024-03-06T14:25:34;5.17;;;2.60;;
21806;SDS011;11065;50.786;7.840;2024-03-06T14:28:04;4.70;;;2.63;;
21806;SDS011;11065;50.786;7.840;2024-03-06T14:30:32;3.80;;;2.40;;
21806;SDS011;11065;50.786;7.840;2024-03-06T14:33:00;3.53;;;2.40;;
21806;SDS011;11065;50.786;7.840;2024-03-06T14:35:28;4.23;;;2.50;;
21806;SDS011;11065;50.786;7.840;2024-03-06T14:37:58;3.40;;;2.03;;
21806;SDS011;11065;50.786;7.840;2024-03-06T14:40:26;4.63;;;2.13;;
21806;SDS011;11065;50.786;7.840;2024-03-06T14:42:55;9.23;;;3.10;;
21806;SDS011;11065;50.786;7.840;2024-03-06T14:45:23;4.87;;;2.80;;
21806;SDS011;11065;50.786;7.840;2024-03-06T14:47:51;4.30;;;2.37;;